Time;durP1;ratioP1;P1;durP2;ratioP2;P2;SDS_P1;SDS_P2;PMS_P1;PMS_P2;Temp;Humidity;BMP_temperature;BMP_pressure;BME280_temperature;BME280_humidity;BME280_pressure;Samples;Min_cycle;Max_cycle;Signal;HPM_P1;HPM_P2
2021/11/24 00:01:29;;;;;;;5.97;2.50;;;;;;;2.59;48.09;99774.50;3420118;28;20131;-71
2021/11/24 00:03:10;;;;;;;4.22;2.55;;;;;;;2.57;47.94;99775.59;3414946;29;20043;-71
2021/11/24 00:04:51;;;;;;;4.35;2.33;;;;;;;2.55;47.80;99772.28;3415273;29;20038;-73
2021/11/24 00:06:32;;;;;;;6.13;2.63;;;;;;;2.53;47.89;99768.94;3400752;29;20036;-72
2021/11/24 00:08:13;;;;;;;4.88;2.28;;;;;;;2.52;48.33;99777.81;3397903;29;20103;-72
2021/11/24 00:09:54;;;;;;;6.82;3.00;;;;;;;2.50;48.22;99769.22;3412475;29;20043;-71
2021/11/24 00:11:35;;;;;;;4.75;2.65;;;;;;;2.48;48.08;99782.53;3419965;28;20039;-72
2021/11/24 00:13:15;;;;;;;5.60;3.33;;;;;;;2.45;48.03;99774.91;3414626;29;20039;-73
2021/11/24 00:14:56;;;;;;;3.72;2.20;;;;;;;2.43;47.99;99770.75;3416103;29;20066;-73
2021/11/24 00:16:36;;;;;;;6.53;2.60;;;;;;;2.39;48.04;99775.47;3417437;29;20040;-72
2021/11/24 00:18:17;;;;;;;6.53;3.20;;;;;;;2.35;48.03;99774.09;3416389;28;20054;-71
2021/11/24 00:19:58;;;;;;;7.57;2.75;;;;;;;2.33;48.21;99770.78;3415597;29;20070;-72
2021/11/24 00:21:39;;;;;;;3.30;1.88;;;;;;;2.33;48.17;99768.97;3418768;28;20498;-71
2021/11/24 00:23:19;;;;;;;3.47;2.03;;;;;;;2.33;48.00;99778.69;3415557;29;20043;-71
2021/11/24 00:25:00;;;;;;;5.13;2.53;;;;;;;2.31;48.29;99768.28;3417527;29;20410;-71
2021/11/24 00:26:41;;;;;;;6.00;2.90;;;;;;;2.27;48.04;99752.91;3416527;29;20510;-73
2021/11/24 00:28:22;;;;;;;4.43;2.67;;;;;;;2.31;48.00;99768.28;3416192;29;20042;-73
2021/11/24 00:30:07;;;;;;;3.65;2.63;;;;;;;2.29;48.16;99761.50;3416093;29;20138;-72
2021/11/24 00:31:48;;;;;;;3.88;2.20;;;;;;;2.29;48.19;99761.50;3417238;28;20525;-74
2021/11/24 00:33:29;;;;;;;3.47;1.60;;;;;;;2.26;47.89;99762.63;3416108;29;20039;-74
2021/11/24 00:35:09;;;;;;;6.32;2.97;;;;;;;2.26;48.08;99764.41;3416027;29;20035;-73
2021/11/24 00:36:51;;;;;;;3.60;2.75;;;;;;;2.26;48.02;99761.78;3415980;29;20031;-71
2021/11/24 00:38:32;;;;;;;3.40;2.28;;;;;;;2.25;47.98;99766.22;3414820;29;20047;-72
2021/11/24 00:40:12;;;;;;;4.45;2.17;;;;;;;2.22;48.07;99766.50;3415088;29;20582;-72
2021/11/24 00:41:53;;;;;;;4.18;2.03;;;;;;;2.22;47.83;99765.66;3415636;28;20071;-71
2021/11/24 00:43:34;;;;;;;5.22;2.65;;;;;;;2.20;48.18;99775.50;3414978;29;20343;-72
2021/11/24 00:45:14;;;;;;;7.72;2.97;;;;;;;2.17;47.79;99772.19;3414548;29;20517;-71
2021/11/24 00:46:55;;;;;;;6.05;2.75;;;;;;;2.15;48.15;99775.91;3414644;29;20495;-73
2021/11/24 00:48:36;;;;;;;4.15;2.05;;;;;;;2.14;48.14;99772.47;3414641;29;20038;-71
2021/11/24 00:50:17;;;;;;;6.38;2.72;;;;;;;2.13;48.20;99765.53;3414461;28;20035;-71
2021/11/24 00:51:58;;;;;;;3.08;1.95;;;;;;;2.10;47.86;99765.81;3415227;29;20126;-72
2021/11/24 00:53:38;;;;;;;4.95;2.08;;;;;;;2.12;47.95;99771.75;3414027;29;20134;-71
2021/11/24 00:55:19;;;;;;;8.23;2.50;;;;;;;2.12;48.27;99771.75;3414269;29;20038;-71
2021/11/24 00:57:00;;;;;;;4.43;2.00;;;;;;;2.11;48.29;99764.81;3400131;29;20047;-71
2021/11/24 00:58:41;;;;;;;4.57;2.17;;;;;;;2.09;48.05;99758.91;3411639;29;20579;-73
2021/11/24 01:00:22;;;;;;;2.55;1.90;;;;;;;2.10;48.30;99763.19;3414430;28;20131;-72
2021/11/24 01:02:05;;;;;;;5.33;2.40;;;;;;;2.09;48.19;99756.28;3415013;29;20395;-72
2021/11/24 01:03:46;;;;;;;2.95;2.03;;;;;;;2.10;48.14;99754.47;3399404;29;20283;-71
2021/11/24 01:05:29;;;;;;;3.97;1.80;;;;;;;2.09;48.14;99764.16;3411627;29;20073;-73
2021/11/24 01:07:09;;;;;;;4.13;2.08;;;;;;;2.09;48.25;99761.53;3414097;29;20086;-73
2021/11/24 01:08:50;;;;;;;3.45;2.05;;;;;;;2.10;48.26;99757.09;3414671;29;20414;-73
2021/11/24 01:10:31;;;;;;;3.17;2.33;;;;;;;2.08;48.02;99748.50;3414100;29;20078;-71
2021/11/24 01:12:12;;;;;;;3.03;1.65;;;;;;;2.07;48.17;99746.88;3414491;29;20368;-73
2021/11/24 01:13:53;;;;;;;5.55;2.78;;;;;;;2.05;48.14;99752.25;3414732;29;20073;-71
2021/11/24 01:15:34;;;;;;;3.72;1.75;;;;;;;2.06;48.09;99743.38;3414256;29;20039;-72
2021/11/24 01:17:14;;;;;;;4.68;2.13;;;;;;;2.04;48.03;99737.47;3413676;29;20082;-72
2021/11/24 01:18:55;;;;;;;3.15;1.77;;;;;;;2.06;48.35;99735.50;3400608;29;20103;-73
2021/11/24 01:20:36;;;;;;;4.30;2.15;;;;;;;2.06;48.41;99730.22;3402362;29;20039;-73
2021/11/24 01:22:16;;;;;;;5.53;2.65;;;;;;;2.04;47.93;99729.56;3411994;29;20043;-74
2021/11/24 01:23:57;;;;;;;3.67;2.20;;;;;;;2.05;47.71;99733.84;3415199;29;20498;-71
2021/11/24 01:25:38;;;;;;;4.35;1.95;;;;;;;2.05;48.02;99725.13;3414774;29;20043;-72
2021/11/24 01:27:18;;;;;;;2.95;2.17;;;;;;;2.04;47.93;99737.47;3413915;29;20043;-70
2021/11/24 01:28:59;;;;;;;4.90;2.90;;;;;;;2.04;47.96;99724.31;3414759;29;20085;-74
2021/11/24 01:30:40;;;;;;;5.85;2.55;;;;;;;2.05;47.87;99722.50;3402962;28;20059;-72
2021/11/24 01:32:21;;;;;;;3.75;2.08;;;;;;;2.05;47.87;99723.31;3413941;28;20047;-72
2021/11/24 01:34:01;;;;;;;10.52;4.30;;;;;;;2.04;47.63;99724.31;3400327;29;20494;-70
2021/11/24 01:35:42;;;;;;;5.72;2.63;;;;;;;2.04;47.72;99721.69;3411249;29;20407;-74
2021/11/24 01:37:23;;;;;;;3.75;1.90;;;;;;;2.04;47.64;99718.19;3414101;29;20048;-72
2021/11/24 01:39:04;;;;;;;4.20;1.85;;;;;;;2.02;47.38;99713.09;3413989;29;20051;-72
2021/11/24 01:40:45;;;;;;;3.00;2.28;;;;;;;2.02;47.37;99720.16;3411894;28;20568;-71
2021/11/24 01:42:28;;;;;;;4.88;2.45;;;;;;;1.97;47.13;99712.69;3402027;29;20174;-73
2021/11/24 01:44:23;;;;;;;3.70;2.45;;;;;;;1.99;47.41;99721.28;3411895;29;20031;-71
2021/11/24 01:46:04;;;;;;;2.63;1.70;;;;;;;1.92;47.22;99722.78;3409771;29;20079;-72
2021/11/24 01:47:45;;;;;;;4.78;2.30;;;;;;;1.89;47.19;99718.63;3413932;29;20066;-72
2021/11/24 01:49:27;;;;;;;5.68;2.13;;;;;;;1.85;47.36;99713.78;3413698;29;20031;-72
2021/11/24 01:51:07;;;;;;;7.20;2.63;;;;;;;1.86;47.19;99718.06;3406289;28;20039;-73
2021/11/24 01:52:48;;;;;;;2.78;1.90;;;;;;;1.80;47.38;99713.38;3416889;28;20045;-72
2021/11/24 01:54:30;;;;;;;3.72;1.55;;;;;;;1.80;47.48;99723.88;3401290;29;20654;-73
2021/11/24 01:56:10;;;;;;;5.10;2.90;;;;;;;1.75;47.10;99711.16;3411556;29;20481;-73
2021/11/24 01:57:52;;;;;;;4.05;2.33;;;;;;;1.74;47.10;99709.50;3400233;29;20042;-74
2021/11/24 01:59:32;;;;;;;5.03;2.33;;;;;;;1.72;47.20;99712.25;3400684;29;20032;-75
2021/11/24 02:01:13;;;;;;;4.38;2.10;;;;;;;1.72;47.31;99709.63;3417768;28;20454;-74
2021/11/24 02:02:54;;;;;;;5.47;2.35;;;;;;;1.68;47.09;99705.63;3415185;29;20035;-73
2021/11/24 02:04:35;;;;;;;4.38;1.95;;;;;;;1.68;47.27;99708.25;3414472;29;20078;-72
2021/11/24 02:06:15;;;;;;;4.43;2.03;;;;;;;1.66;47.20;99707.56;3414867;29;20031;-73
2021/11/24 02:07:56;;;;;;;3.28;1.75;;;;;;;1.63;47.18;99702.56;3417120;28;20162;-72
2021/11/24 02:09:37;;;;;;;2.70;1.98;;;;;;;1.63;47.48;99704.38;3415909;29;20098;-73
2021/11/24 02:11:18;;;;;;;4.80;2.42;;;;;;;1.59;47.14;99701.19;3415641;29;20449;-73
2021/11/24 02:12:59;;;;;;;3.85;1.92;;;;;;;1.56;47.16;99701.47;3416748;29;20066;-73
2021/11/24 02:14:40;;;;;;;3.72;2.25;;;;;;;1.56;47.15;99698.00;3416116;29;20039;-74
2021/11/24 02:16:21;;;;;;;7.13;2.58;;;;;;;1.55;47.54;99705.06;3416778;29;20090;-74
2021/11/24 02:18:04;;;;;;;4.35;2.30;;;;;;;1.54;47.51;99703.38;3423490;28;20046;-73
2021/11/24 02:19:44;;;;;;;5.18;2.03;;;;;;;1.51;47.26;99701.88;3413114;29;20406;-72
2021/11/24 02:21:25;;;;;;;4.35;2.00;;;;;;;1.53;47.51;99693.84;3413982;29;20122;-73
2021/11/24 02:23:07;;;;;;;5.03;2.35;;;;;;;1.54;47.33;99700.75;3414133;29;20503;-72
2021/11/24 02:24:48;;;;;;;3.67;2.13;;;;;;;1.53;47.12;99701.75;3413804;29;20414;-73
2021/11/24 02:26:29;;;;;;;3.45;1.98;;;;;;;1.53;47.17;99696.47;3414110;29;20118;-74
2021/11/24 02:28:10;;;;;;;5.13;2.20;;;;;;;1.52;47.30;99700.06;3418518;28;20511;-75
2021/11/24 02:29:51;;;;;;;5.10;2.00;;;;;;;1.50;47.26;99691.50;3413691;29;20151;-73
2021/11/24 02:31:32;;;;;;;4.20;2.83;;;;;;;1.51;47.44;99686.09;3413856;29;20077;-73
2021/11/24 02:33:13;;;;;;;5.32;2.35;;;;;;;1.53;47.38;99680.72;3413144;29;20036;-72
2021/11/24 02:34:53;;;;;;;7.28;2.15;;;;;;;1.52;47.32;99689.56;3414208;29;20062;-72
2021/11/24 02:36:34;;;;;;;5.30;2.22;;;;;;;1.53;47.57;99691.22;3414211;29;20035;-73
2021/11/24 02:38:16;;;;;;;6.13;2.87;;;;;;;1.50;47.19;99681.00;3416809;28;20069;-74
2021/11/24 02:39:57;;;;;;;3.97;2.55;;;;;;;1.53;47.11;99685.97;3413892;29;20076;-73
2021/11/24 02:41:38;;;;;;;4.68;2.35;;;;;;;1.49;47.24;99684.56;3413717;28;20202;-71
2021/11/24 02:43:18;;;;;;;3.17;1.98;;;;;;;1.48;47.13;99685.56;3415514;29;20039;-73
2021/11/24 02:44:59;;;;;;;6.43;2.97;;;;;;;1.47;47.34;99687.34;3416666;29;20038;-74
2021/11/24 02:46:40;;;;;;;4.57;3.30;;;;;;;1.45;47.02;99689.28;3402265;29;20044;-73
2021/11/24 02:48:21;;;;;;;7.40;2.90;;;;;;;1.42;47.25;99684.31;3417853;28;20093;-74
2021/11/24 02:50:04;;;;;;;4.32;2.40;;;;;;;1.39;47.40;99683.72;3416438;29;20046;-73
2021/11/24 02:51:45;;;;;;;3.53;2.22;;;;;;;1.37;47.00;99685.66;3418293;28;20073;-72
2021/11/24 02:53:31;;;;;;;5.28;3.00;;;;;;;1.38;47.18;99687.34;3403861;28;20126;-73
2021/11/24 02:55:14;;;;;;;5.47;2.63;;;;;;;1.35;47.31;99685.00;3413902;29;20046;-72
2021/11/24 02:56:55;;;;;;;5.20;2.70;;;;;;;1.31;47.23;99672.09;3410207;29;20114;-71
2021/11/24 02:58:35;;;;;;;6.50;2.80;;;;;;;1.34;47.59;99691.19;3419884;28;20035;-75
2021/11/24 03:00:23;;;;;;;3.63;2.05;;;;;;;1.33;47.48;99686.91;3415821;29;20083;-73
2021/11/24 03:02:05;;;;;;;5.07;2.50;;;;;;;1.28;47.20;99672.38;3415323;29;20137;-73
2021/11/24 03:03:46;;;;;;;3.28;2.30;;;;;;;1.29;47.28;99674.06;3416142;29;20138;-72
2021/11/24 03:05:27;;;;;;;5.35;2.83;;;;;;;1.31;47.70;99684.41;3416200;29;20063;-74
2021/11/24 03:07:08;;;;;;;9.10;3.73;;;;;;;1.29;47.61;99681.09;3415590;29;20039;-72
2021/11/24 03:08:48;;;;;;;9.95;3.53;;;;;;;1.29;47.47;99676.69;3416773;28;20549;-72
2021/11/24 03:10:30;;;;;;;4.10;2.35;;;;;;;1.19;47.24;99667.97;3415891;29;20529;-71
2021/11/24 03:12:11;;;;;;;4.57;2.35;;;;;;;1.28;47.34;99677.63;3420574;28;20057;-75
2021/11/24 03:13:51;;;;;;;5.45;2.42;;;;;;;1.30;47.30;99673.09;3414963;29;20040;-73
2021/11/24 03:15:33;;;;;;;6.32;2.50;;;;;;;1.31;47.34;99674.72;3415639;29;20122;-72
2021/11/24 03:17:14;;;;;;;4.68;2.50;;;;;;;1.35;47.46;99671.84;3415805;29;20130;-75
2021/11/24 03:18:54;;;;;;;3.90;2.53;;;;;;;1.36;47.33;99676.13;3406067;28;20046;-72
2021/11/24 03:20:35;;;;;;;5.07;2.72;;;;;;;1.35;47.26;99662.19;3413712;29;20039;-71
2021/11/24 03:22:26;;;;;;;3.38;2.20;;;;;;;1.34;47.38;99670.19;3416711;29;20042;-73
2021/11/24 03:24:07;;;;;;;3.53;2.50;;;;;;;1.33;47.34;99668.53;3416125;29;20190;-72
2021/11/24 03:25:47;;;;;;;4.18;2.45;;;;;;;1.36;47.59;99673.50;3415907;29;20413;-74
2021/11/24 03:27:31;;;;;;;3.85;2.97;;;;;;;1.35;47.37;99663.97;3416113;29;20043;-71
2021/11/24 03:29:12;;;;;;;7.70;2.92;;;;;;;1.33;47.52;99664.09;3395156;29;20044;-73
2021/11/24 03:30:53;;;;;;;6.43;2.55;;;;;;;1.30;47.60;99659.97;3410915;29;20055;-72
2021/11/24 03:32:34;;;;;;;2.42;2.20;;;;;;;1.33;47.59;99668.53;3415639;29;20040;-72
2021/11/24 03:34:14;;;;;;;5.60;2.90;;;;;;;1.31;47.85;99661.59;3415622;29;20093;-71
2021/11/24 03:35:55;;;;;;;5.38;2.15;;;;;;;1.34;48.04;99662.31;3415648;29;20035;-73
2021/11/24 03:37:36;;;;;;;5.25;3.03;;;;;;;1.33;47.66;99658.84;3415756;29;20137;-73
2021/11/24 03:39:17;;;;;;;3.85;2.30;;;;;;;1.32;47.86;99657.22;3423823;28;20418;-72
2021/11/24 03:40:58;;;;;;;5.63;3.17;;;;;;;1.33;47.89;99658.84;3416113;29;20043;-71
2021/11/24 03:42:42;;;;;;;4.82;2.53;;;;;;;1.33;47.80;99653.59;3415687;29;20122;-70
2021/11/24 03:44:22;;;;;;;6.07;2.95;;;;;;;1.32;47.79;99654.59;3415481;29;20525;-72
2021/11/24 03:46:03;;;;;;;5.45;3.10;;;;;;;1.33;47.89;99655.41;3415805;29;20039;-73
2021/11/24 03:47:45;;;;;;;8.25;3.13;;;;;;;1.33;47.49;99650.16;3408926;29;20050;-74
2021/11/24 03:49:25;;;;;;;5.88;3.15;;;;;;;1.34;47.53;99643.94;3416467;28;20038;-73
2021/11/24 03:51:06;;;;;;;9.63;2.95;;;;;;;1.36;47.85;99652.50;3401699;29;20035;-72
2021/11/24 03:52:47;;;;;;;8.77;3.40;;;;;;;1.35;47.82;99646.44;3399138;29;20078;-72
2021/11/24 03:54:28;;;;;;;5.97;3.20;;;;;;;1.37;47.70;99654.16;3414479;28;20039;-72
2021/11/24 03:56:10;;;;;;;5.15;2.53;;;;;;;1.35;47.79;99645.59;3417077;28;20083;-71
2021/11/24 03:57:51;;;;;;;4.57;3.00;;;;;;;1.39;47.69;99654.84;3416286;29;20491;-71
2021/11/24 03:59:32;;;;;;;3.75;3.28;;;;;;;1.39;47.63;99650.41;3416865;29;20598;-72
2021/11/24 04:01:13;;;;;;;5.68;3.17;;;;;;;1.39;47.94;99660.94;3415210;29;20495;-72
2021/11/24 04:02:54;;;;;;;5.15;3.47;;;;;;;1.35;47.83;99646.44;3415666;29;20035;-73
2021/11/24 04:04:35;;;;;;;3.60;2.67;;;;;;;1.37;47.73;99659.41;3415459;29;20530;-72
2021/11/24 04:06:15;;;;;;;4.13;3.13;;;;;;;1.35;47.91;99648.22;3416729;28;20038;-72
2021/11/24 04:07:58;;;;;;;6.65;2.90;;;;;;;1.31;47.73;99650.28;3418151;29;20043;-72
2021/11/24 04:09:39;;;;;;;5.00;3.00;;;;;;;1.31;48.00;99661.59;3419973;29;20043;-72
2021/11/24 04:11:19;;;;;;;7.50;3.58;;;;;;;1.28;47.83;99656.63;3420198;29;20142;-74
2021/11/24 04:13:00;;;;;;;4.68;2.55;;;;;;;1.25;47.90;99656.91;3420221;29;20054;-72
2021/11/24 04:14:41;;;;;;;5.75;3.47;;;;;;;1.26;48.11;99655.94;3420006;29;20039;-73
2021/11/24 04:16:21;;;;;;;6.78;3.58;;;;;;;1.24;48.17;99660.50;3428235;28;20046;-72
2021/11/24 04:18:02;;;;;;;5.28;2.95;;;;;;;1.22;48.04;99662.44;3418788;29;20098;-74
2021/11/24 04:19:43;;;;;;;4.43;2.80;;;;;;;1.20;47.94;99659.09;3404137;29;20063;-71
2021/11/24 04:21:23;;;;;;;4.07;2.50;;;;;;;1.18;48.27;99657.59;3414412;29;20490;-72
2021/11/24 04:23:04;;;;;;;6.40;3.15;;;;;;;1.12;48.45;99656.34;3418099;29;20043;-73
2021/11/24 04:24:45;;;;;;;4.80;2.78;;;;;;;1.11;48.22;99653.81;3418682;29;20069;-73
2021/11/24 04:26:26;;;;;;;8.38;3.63;;;;;;;1.08;48.15;99654.94;3417844;29;20042;-73
2021/11/24 04:28:06;;;;;;;7.45;3.55;;;;;;;1.02;48.03;99647.59;3414593;29;20087;-73
2021/11/24 04:29:47;;;;;;;7.03;2.92;;;;;;;1.06;48.15;99652.47;3415071;29;20039;-74
2021/11/24 04:31:28;;;;;;;7.10;3.35;;;;;;;1.05;48.34;99644.72;3415288;29;20063;-71
2021/11/24 04:33:08;;;;;;;6.82;3.30;;;;;;;1.04;48.08;99650.94;3414861;29;20134;-74
2021/11/24 04:34:49;;;;;;;8.10;3.40;;;;;;;1.01;47.99;99648.59;3414144;29;20069;-72
2021/11/24 04:36:30;;;;;;;4.72;2.95;;;;;;;0.98;47.85;99638.31;3414260;28;20043;-74
2021/11/24 04:38:11;;;;;;;6.93;3.17;;;;;;;0.96;47.96;99640.28;3414590;29;20559;-75
2021/11/24 04:39:52;;;;;;;7.85;3.85;;;;;;;0.98;48.28;99643.56;3415352;29;20122;-73
2021/11/24 04:41:32;;;;;;;8.65;2.88;;;;;;;0.96;47.70;99635.84;3414647;29;20039;-73
2021/11/24 04:43:15;;;;;;;7.13;3.95;;;;;;;0.94;48.20;99632.53;3414261;29;20085;-74
2021/11/24 04:44:56;;;;;;;7.68;3.55;;;;;;;0.94;48.48;99631.72;3414805;29;20042;-74
2021/11/24 04:46:37;;;;;;;7.88;4.10;;;;;;;0.93;48.04;99635.28;3422044;28;20086;-75
2021/11/24 04:48:17;;;;;;;6.95;3.00;;;;;;;0.91;48.12;99626.75;3413955;29;20073;-72
2021/11/24 04:49:58;;;;;;;5.38;3.85;;;;;;;0.89;48.08;99623.41;3414559;29;20043;-74
2021/11/24 04:51:40;;;;;;;8.02;3.30;;;;;;;0.86;48.27;99620.09;3413957;29;20047;-74
2021/11/24 04:53:21;;;;;;;13.77;4.22;;;;;;;0.85;48.13;99628.06;3414007;29;20039;-74
2021/11/24 04:55:03;;;;;;;3.75;2.75;;;;;;;0.83;48.61;99625.59;3414294;29;20035;-73
2021/11/24 04:56:43;;;;;;;7.22;3.10;;;;;;;0.82;48.26;99616.06;3421973;28;20046;-73
2021/11/24 04:58:24;;;;;;;4.63;3.03;;;;;;;0.81;48.34;99616.22;3414337;29;20495;-74
2021/11/24 05:00:09;;;;;;;6.32;3.45;;;;;;;0.77;48.71;99613.00;3413367;29;20035;-72
2021/11/24 05:01:50;;;;;;;4.10;2.95;;;;;;;0.78;48.46;99616.47;3404062;29;20044;-74
2021/11/24 05:03:30;;;;;;;7.88;3.95;;;;;;;0.75;48.67;99609.72;3413991;29;20070;-71
2021/11/24 05:05:11;;;;;;;5.78;3.42;;;;;;;0.79;48.98;99605.00;3413278;28;20407;-71
2021/11/24 05:06:52;;;;;;;7.38;3.60;;;;;;;0.83;49.82;99594.13;3418793;28;20039;-72
2021/11/24 05:08:35;;;;;;;9.40;3.65;;;;;;;0.98;50.76;99598.97;3413641;29;20146;-72
2021/11/24 05:10:15;;;;;;;5.82;3.47;;;;;;;1.10;50.67;99595.25;3409811;29;20058;-72
2021/11/24 05:11:57;;;;;;;3.95;2.75;;;;;;;1.24;51.27;99587.00;3386563;29;20483;-72
2021/11/24 05:13:40;;;;;;;3.95;2.45;;;;;;;1.34;51.55;99575.66;3402820;29;20082;-71
2021/11/24 05:15:28;;;;;;;6.18;3.20;;;;;;;1.55;51.95;99592.13;3399255;29;20088;-72
2021/11/24 05:17:12;;;;;;;4.85;3.10;;;;;;;1.66;51.79;99589.34;3418157;28;20045;-72
2021/11/24 05:18:53;;;;;;;12.10;4.35;;;;;;;1.74;51.96;99594.72;3413844;29;20069;-73
2021/11/24 05:20:35;;;;;;;7.40;3.92;;;;;;;1.77;52.05;99580.47;3412480;29;20031;-71
2021/11/24 05:22:17;;;;;;;7.97;5.15;;;;;;;1.83;51.98;99586.97;3420541;28;20042;-71
2021/11/24 05:23:58;;;;;;;5.10;3.33;;;;;;;1.85;52.48;99580.59;3419724;28;20035;-73
2021/11/24 05:25:39;;;;;;;10.20;3.88;;;;;;;1.90;52.36;99585.44;3414000;29;20034;-77
2021/11/24 05:27:20;;;;;;;5.50;3.55;;;;;;;1.89;52.56;99581.16;3413085;29;20039;-77
2021/11/24 05:29:00;;;;;;;8.07;4.30;;;;;;;1.95;52.24;99572.69;3413700;29;20035;-74
2021/11/24 05:30:41;;;;;;;7.50;4.43;;;;;;;1.96;52.70;99569.94;3399128;29;20043;-73
2021/11/24 05:32:22;;;;;;;7.82;4.60;;;;;;;2.01;52.81;99569.50;3384340;29;20044;-72
2021/11/24 05:34:03;;;;;;;6.22;4.18;;;;;;;2.05;52.72;99563.00;3397699;29;20505;-71
2021/11/24 05:35:44;;;;;;;16.23;4.53;;;;;;;2.14;52.46;99575.28;3393646;29;20032;-71
2021/11/24 05:37:25;;;;;;;7.90;4.53;;;;;;;2.23;52.34;99559.63;3399613;29;20043;-72
2021/11/24 05:39:08;;;;;;;5.38;3.78;;;;;;;2.31;52.58;99570.25;3399190;29;20043;-70
2021/11/24 05:40:49;;;;;;;8.77;3.45;;;;;;;2.34;52.26;99557.63;3400390;29;20518;-76
2021/11/24 05:42:33;;;;;;;5.63;3.55;;;;;;;2.43;52.13;99563.81;3401268;28;20574;-75
2021/11/24 05:44:20;;;;;;;8.38;3.92;;;;;;;2.44;52.28;99560.22;3400142;29;20087;-75
2021/11/24 05:46:27;;;;;;;4.53;3.10;;;;;;;2.46;52.11;99558.28;3412633;29;20105;-74
2021/11/24 05:48:10;;;;;;;4.15;2.72;;;;;;;2.48;51.80;99553.69;3395279;29;20047;-74
2021/11/24 05:49:51;;;;;;;5.07;3.53;;;;;;;2.51;51.70;99555.22;3400071;29;20063;-73
2021/11/24 05:51:31;;;;;;;7.25;3.97;;;;;;;2.51;51.66;99550.78;3400793;29;20422;-75
2021/11/24 05:53:14;;;;;;;6.75;3.63;;;;;;;2.48;51.80;99545.81;3414048;28;20043;-75
2021/11/24 05:54:54;;;;;;;8.63;4.47;;;;;;;2.46;51.77;99547.75;3414085;29;20070;-75
2021/11/24 05:56:38;;;;;;;9.55;3.97;;;;;;;2.46;51.78;99547.75;3400947;28;20380;-75
2021/11/24 05:58:19;;;;;;;5.78;3.25;;;;;;;2.45;51.86;99551.34;3400890;29;20047;-74
2021/11/24 05:59:59;;;;;;;10.95;4.85;;;;;;;2.41;51.97;99547.34;3400909;29;20499;-76
2021/11/24 06:01:40;;;;;;;7.82;4.25;;;;;;;2.45;51.71;99559.22;3401285;29;20054;-76
2021/11/24 06:03:21;;;;;;;6.60;3.40;;;;;;;2.43;51.68;99542.78;3409598;29;20110;-75
2021/11/24 06:05:02;;;;;;;8.40;4.13;;;;;;;2.42;51.80;99549.00;3399973;29;20040;-76
2021/11/24 06:06:44;;;;;;;6.95;4.32;;;;;;;2.42;51.62;99551.63;3400246;29;20043;-74
2021/11/24 06:08:24;;;;;;;8.10;3.38;;;;;;;2.42;51.47;99545.56;3399764;29;20044;-73
2021/11/24 06:10:07;;;;;;;6.57;3.55;;;;;;;2.38;51.54;99532.69;3400059;29;20050;-75
2021/11/24 06:11:48;;;;;;;7.65;3.63;;;;;;;2.35;51.66;99540.03;3399872;29;20044;-74
2021/11/24 06:13:29;;;;;;;7.50;3.60;;;;;;;2.37;51.68;99527.56;3397244;29;20106;-74
2021/11/24 06:15:14;;;;;;;13.23;4.07;;;;;;;2.36;51.46;99525.94;3401005;29;20059;-75
2021/11/24 06:16:55;;;;;;;10.68;4.07;;;;;;;2.36;51.39;99531.19;3406223;29;20544;-74
2021/11/24 06:18:36;;;;;;;8.32;3.92;;;;;;;2.36;51.58;99520.66;3415581;29;20046;-72
2021/11/24 06:20:17;;;;;;;6.18;3.33;;;;;;;2.39;51.41;99530.88;3408783;29;20031;-74
2021/11/24 06:21:58;;;;;;;6.28;4.07;;;;;;;2.38;51.49;99508.22;3399851;29;20043;-73
2021/11/24 06:23:39;;;;;;;6.00;3.97;;;;;;;2.39;51.25;99523.81;3409338;29;20050;-73
2021/11/24 06:25:20;;;;;;;15.77;5.10;;;;;;;2.42;51.48;99520.06;3416223;29;20043;-73
2021/11/24 06:27:01;;;;;;;9.32;3.92;;;;;;;2.44;51.25;99497.09;3416250;28;20045;-74
2021/11/24 06:28:43;;;;;;;6.68;3.38;;;;;;;2.42;51.26;99500.84;3416231;28;20066;-75
2021/11/24 06:30:24;;;;;;;;;;;;;;;2.52;51.05;99499.81;3412354;29;20087;-74
2021/11/24 06:32:05;;;;;;;6.78;3.63;;;;;;;2.45;50.99;99493.47;3413190;29;19950;-72
2021/11/24 06:33:47;;;;;;;6.32;2.75;;;;;;;2.43;51.10;99521.75;3412725;29;20126;-73
2021/11/24 06:35:28;;;;;;;9.27;3.40;;;;;;;2.42;51.01;99496.41;3416481;28;20054;-74
2021/11/24 06:37:08;;;;;;;5.95;3.63;;;;;;;2.40;51.19;99498.34;3416273;28;20043;-75
2021/11/24 06:38:49;;;;;;;7.07;5.05;;;;;;;2.40;51.06;99477.31;3416238;28;20059;-75
2021/11/24 06:40:30;;;;;;;10.32;4.00;;;;;;;2.42;51.45;99482.44;3405805;28;20091;-73
2021/11/24 06:42:11;;;;;;;8.23;3.53;;;;;;;2.43;51.30;99473.56;3402544;29;20119;-74
2021/11/24 06:43:54;;;;;;;7.55;3.38;;;;;;;2.42;51.05;99466.66;3404402;29;20058;-74
2021/11/24 06:45:34;;;;;;;6.38;3.50;;;;;;;2.44;51.04;99483.13;3415221;28;20049;-74
2021/11/24 06:47:17;;;;;;;6.20;3.80;;;;;;;2.43;51.06;99478.81;3403008;29;20063;-74
2021/11/24 06:48:58;;;;;;;4.97;3.13;;;;;;;2.43;51.22;99478.81;3404512;29;20051;-73
2021/11/24 06:50:39;;;;;;;11.60;3.67;;;;;;;2.41;50.88;99473.72;3416086;28;20129;-75
2021/11/24 06:52:19;;;;;;;6.28;3.20;;;;;;;2.44;50.95;99469.97;3416376;28;20039;-73
2021/11/24 06:54:00;;;;;;;5.32;3.05;;;;;;;2.45;50.93;99464.53;3415837;28;20396;-73
2021/11/24 06:55:41;;;;;;;5.15;3.55;;;;;;;2.50;50.97;99462.28;3416014;29;20046;-73
2021/11/24 06:57:22;;;;;;;9.15;3.95;;;;;;;2.50;50.98;99457.03;3428214;28;20526;-75
2021/11/24 06:59:04;;;;;;;4.95;3.03;;;;;;;2.53;50.89;99443.59;3415029;28;20036;-72
2021/11/24 07:00:45;;;;;;;7.32;3.65;;;;;;;2.56;51.04;99461.72;3415208;28;20530;-73
2021/11/24 07:02:26;;;;;;;8.30;3.13;;;;;;;2.58;50.88;99459.78;3412031;28;20158;-74
2021/11/24 07:04:07;;;;;;;7.15;3.53;;;;;;;2.57;50.72;99463.38;3401172;29;20291;-71
2021/11/24 07:05:47;;;;;;;8.50;4.38;;;;;;;2.58;50.69;99470.28;3404326;28;20035;-74
2021/11/24 07:07:28;;;;;;;11.20;3.60;;;;;;;2.57;50.68;99468.63;3402529;29;20139;-75
2021/11/24 07:09:10;;;;;;;10.93;3.47;;;;;;;2.60;50.56;99475.38;3402698;29;20047;-76
2021/11/24 07:10:51;;;;;;;8.70;3.40;;;;;;;2.61;50.70;99470.00;3402458;29;20303;-70
2021/11/24 07:12:32;;;;;;;5.63;3.30;;;;;;;2.70;50.67;99470.06;3402340;29;20099;-72
2021/11/24 07:14:14;;;;;;;7.15;3.00;;;;;;;2.77;50.58;99465.88;3402635;29;20538;-70
2021/11/24 07:15:56;;;;;;;9.13;3.05;;;;;;;2.83;50.37;99466.06;3410950;29;20042;-70
2021/11/24 07:17:37;;;;;;;7.88;3.15;;;;;;;3.00;50.34;99466.25;3405057;28;20047;-71
2021/11/24 07:19:21;;;;;;;6.53;3.72;;;;;;;3.09;50.14;99469.75;3397844;29;20045;-73
2021/11/24 07:21:03;;;;;;;23.50;4.25;;;;;;;3.24;50.24;99474.34;3401905;29;20071;-71
2021/11/24 07:22:44;;;;;;;8.68;4.28;;;;;;;3.32;49.90;99460.41;3402159;29;20047;-72
2021/11/24 07:24:25;;;;;;;5.82;3.05;;;;;;;3.45;49.71;99460.81;3409477;29;20126;-71
2021/11/24 07:26:07;;;;;;;4.93;3.17;;;;;;;3.69;49.37;99462.81;3414723;29;20035;-70
2021/11/24 07:27:48;;;;;;;10.38;3.33;;;;;;;4.17;48.96;99465.81;3414913;28;20091;-72
2021/11/24 07:29:29;;;;;;;8.77;3.63;;;;;;;4.64;48.23;99457.38;3427419;28;20039;-73
2021/11/24 07:31:10;;;;;;;4.38;2.70;;;;;;;5.15;47.73;99454.63;3414779;28;20563;-73
2021/11/24 07:32:50;;;;;;;4.20;2.88;;;;;;;5.61;47.23;99461.03;3415359;29;20597;-73
2021/11/24 07:34:31;;;;;;;4.28;3.25;;;;;;;5.99;46.80;99453.38;3411764;29;20035;-73
2021/11/24 07:36:12;;;;;;;7.80;3.17;;;;;;;6.10;46.94;99455.63;3418178;28;20109;-72
2021/11/24 07:37:53;;;;;;;6.50;3.13;;;;;;;6.06;47.11;99454.31;3416932;28;20043;-72
2021/11/24 07:39:33;;;;;;;6.55;3.25;;;;;;;5.96;46.93;99442.28;3416993;28;20067;-72
2021/11/24 07:41:14;;;;;;;7.38;3.00;;;;;;;5.83;46.90;99440.97;3424967;28;20102;-73
2021/11/24 07:42:55;;;;;;;5.70;3.30;;;;;;;5.69;46.87;99447.78;3416355;28;20347;-73
2021/11/24 07:44:36;;;;;;;7.78;3.45;;;;;;;5.54;46.89;99436.25;3418241;28;20131;-72
2021/11/24 07:46:17;;;;;;;4.53;2.92;;;;;;;5.48;46.97;99450.16;3414433;28;20515;-71
2021/11/24 07:47:58;;;;;;;8.25;2.72;;;;;;;5.38;46.79;99444.22;3416424;28;20055;-72
2021/11/24 07:49:39;;;;;;;5.43;3.35;;;;;;;5.25;46.73;99429.69;3414139;28;20511;-73
2021/11/24 07:51:20;;;;;;;12.43;3.00;;;;;;;5.20;46.61;99442.56;3416797;28;20035;-75
2021/11/24 07:53:01;;;;;;;4.68;3.28;;;;;;;5.16;46.46;99427.22;3406064;29;20035;-74
2021/11/24 07:54:42;;;;;;;4.93;2.28;;;;;;;5.11;46.41;99443.59;3413333;29;20395;-74
2021/11/24 07:56:23;;;;;;;4.93;3.87;;;;;;;5.01;46.26;99421.78;3415083;28;21481;-75
2021/11/24 07:58:04;;;;;;;4.18;2.60;;;;;;;5.00;46.29;99433.34;3405644;29;20050;-74
2021/11/24 07:59:45;;;;;;;5.82;3.60;;;;;;;4.93;46.06;99424.41;3414282;29;20054;-75
2021/11/24 08:01:25;;;;;;;5.32;2.92;;;;;;;4.85;46.17;99408.56;3415860;28;20039;-75
2021/11/24 08:03:06;;;;;;;4.43;2.67;;;;;;;4.81;46.08;99422.09;3422483;28;20078;-75